sensor_id;sensor_type;location;lat;lon;timestamp;P1;durP1;ratioP1;P2;durP2;ratioP2
21837;SDS011;11081;45.946;6.140;2023-12-20T00:01:20;17.17;;;11.30;;
21837;SDS011;11081;45.946;6.140;2023-12-20T00:03:49;17.03;;;10.20;;
21837;SDS011;11081;45.946;6.140;2023-12-20T00:06:17;17.00;;;10.13;;
21837;SDS011;11081;45.946;6.140;2023-12-20T00:08:45;14.43;;;9.77;;
21837;SDS011;11081;45.946;6.140;2023-12-20T00:11:13;13.83;;;9.23;;
21837;SDS011;11081;45.946;6.140;2023-12-20T00:13:40;14.07;;;8.83;;
21837;SDS011;11081;45.946;6.140;2023-12-20T00:16:10;19.00;;;10.93;;
21837;SDS011;11081;45.946;6.140;2023-12-20T00:18:38;16.63;;;10.13;;
21837;SDS011;11081;45.946;6.140;2023-12-20T00:21:06;13.27;;;9.50;;
21837;SDS011;11081;45.946;6.140;2023-12-20T00:23:34;17.30;;;9.67;;
21837;SDS011;11081;45.946;6.140;2023-12-20T00:26:02;13.73;;;9.40;;
21837;SDS011;11081;45.946;6.140;2023-12-20T00:28:30;15.37;;;9.33;;
21837;SDS011;11081;45.946;6.140;2023-12-20T00:30:58;12.83;;;8.73;;
21837;SDS011;11081;45.946;6.140;2023-12-20T00:33:28;15.33;;;8.33;;
21837;SDS011;11081;45.946;6.140;2023-12-20T00:35:56;13.90;;;8.57;;
21837;SDS011;11081;45.946;6.140;2023-12-20T00:38:24;14.70;;;9.30;;
21837;SDS011;11081;45.946;6.140;2023-12-20T00:40:52;12.50;;;8.30;;
21837;SDS011;11081;45.946;6.140;2023-12-20T00:43:20;12.23;;;7.70;;
21837;SDS011;11081;45.946;6.140;2023-12-20T00:45:48;13.37;;;7.83;;
21837;SDS011;11081;45.946;6.140;2023-12-20T00:48:16;11.47;;;7.43;;
21837;SDS011;11081;45.946;6.140;2023-12-20T00:50:45;12.23;;;7.40;;
21837;SDS011;11081;45.946;6.140;2023-12-20T00:53:13;13.07;;;8.20;;
21837;SDS011;11081;45.946;6.140;2023-12-20T00:55:41;14.80;;;7.80;;
21837;SDS011;11081;45.946;6.140;2023-12-20T00:58:10;10.87;;;7.60;;
21837;SDS011;11081;45.946;6.140;2023-12-20T01:00:38;11.97;;;7.27;;
21837;SDS011;11081;45.946;6.140;2023-12-20T01:03:10;9.70;;;6.50;;
21837;SDS011;11081;45.946;6.140;2023-12-20T01:05:38;10.57;;;7.13;;
21837;SDS011;11081;45.946;6.140;2023-12-20T01:08:07;12.60;;;7.10;;
21837;SDS011;11081;45.946;6.140;2023-12-20T01:10:35;10.20;;;6.20;;
21837;SDS011;11081;45.946;6.140;2023-12-20T01:13:03;9.83;;;6.17;;
21837;SDS011;11081;45.946;6.140;2023-12-20T01:15:30;10.17;;;6.83;;
21837;SDS011;11081;45.946;6.140;2023-12-20T01:17:58;13.23;;;8.10;;
21837;SDS011;11081;45.946;6.140;2023-12-20T01:20:26;12.60;;;8.57;;
21837;SDS011;11081;45.946;6.140;2023-12-20T01:22:54;13.93;;;9.90;;
21837;SDS011;11081;45.946;6.140;2023-12-20T01:25:23;14.03;;;9.20;;
21837;SDS011;11081;45.946;6.140;2023-12-20T01:27:51;14.20;;;8.93;;
21837;SDS011;11081;45.946;6.140;2023-12-20T01:30:19;15.37;;;9.30;;
21837;SDS011;11081;45.946;6.140;2023-12-20T01:32:47;14.17;;;8.70;;
21837;SDS011;11081;45.946;6.140;2023-12-20T01:35:15;15.17;;;9.57;;
21837;SDS011;11081;45.946;6.140;2023-12-20T01:37:43;12.90;;;8.80;;
21837;SDS011;11081;45.946;6.140;2023-12-20T01:40:12;13.63;;;8.63;;
21837;SDS011;11081;45.946;6.140;2023-12-20T01:42:41;14.90;;;9.97;;
21837;SDS011;11081;45.946;6.140;2023-12-20T01:45:09;17.77;;;10.23;;
21837;SDS011;11081;45.946;6.140;2023-12-20T01:47:37;14.47;;;9.33;;
21837;SDS011;11081;45.946;6.140;2023-12-20T01:50:06;13.70;;;9.27;;
21837;SDS011;11081;45.946;6.140;2023-12-20T01:52:35;13.73;;;9.23;;
21837;SDS011;11081;45.946;6.140;2023-12-20T01:55:04;16.17;;;10.67;;
21837;SDS011;11081;45.946;6.140;2023-12-20T01:57:39;13.67;;;9.27;;
21837;SDS011;11081;45.946;6.140;2023-12-20T02:00:11;17.73;;;9.23;;
21837;SDS011;11081;45.946;6.140;2023-12-20T02:02:40;17.90;;;11.50;;
21837;SDS011;11081;45.946;6.140;2023-12-20T02:05:09;17.70;;;12.07;;
21837;SDS011;11081;45.946;6.140;2023-12-20T02:07:38;18.00;;;11.47;;
21837;SDS011;11081;45.946;6.140;2023-12-20T02:10:06;16.93;;;10.60;;
21837;SDS011;11081;45.946;6.140;2023-12-20T02:12:35;16.03;;;11.33;;
21837;SDS011;11081;45.946;6.140;2023-12-20T02:15:04;15.83;;;11.27;;
21837;SDS011;11081;45.946;6.140;2023-12-20T02:17:33;15.70;;;11.00;;
21837;SDS011;11081;45.946;6.140;2023-12-20T02:20:01;19.00;;;11.53;;
21837;SDS011;11081;45.946;6.140;2023-12-20T02:22:31;20.63;;;11.30;;
21837;SDS011;11081;45.946;6.140;2023-12-20T02:24:59;16.03;;;11.23;;
21837;SDS011;11081;45.946;6.140;2023-12-20T02:27:27;18.17;;;11.93;;
21837;SDS011;11081;45.946;6.140;2023-12-20T02:29:56;18.60;;;10.63;;
21837;SDS011;11081;45.946;6.140;2023-12-20T02:32:24;16.13;;;11.40;;
21837;SDS011;11081;45.946;6.140;2023-12-20T02:34:55;18.20;;;10.90;;
21837;SDS011;11081;45.946;6.140;2023-12-20T02:37:23;18.37;;;12.17;;
21837;SDS011;11081;45.946;6.140;2023-12-20T02:39:52;18.33;;;11.47;;
21837;SDS011;11081;45.946;6.140;2023-12-20T02:42:19;15.53;;;11.07;;
21837;SDS011;11081;45.946;6.140;2023-12-20T02:44:47;14.80;;;10.47;;
21837;SDS011;11081;45.946;6.140;2023-12-20T02:47:15;18.80;;;10.80;;
21837;SDS011;11081;45.946;6.140;2023-12-20T02:49:43;14.83;;;10.57;;
21837;SDS011;11081;45.946;6.140;2023-12-20T02:52:11;17.10;;;10.50;;
21837;SDS011;11081;45.946;6.140;2023-12-20T02:54:39;14.33;;;9.90;;
21837;SDS011;11081;45.946;6.140;2023-12-20T02:57:08;17.53;;;11.07;;
21837;SDS011;11081;45.946;6.140;2023-12-20T02:59:36;17.17;;;10.93;;
21837;SDS011;11081;45.946;6.140;2023-12-20T03:02:04;13.60;;;10.27;;
21837;SDS011;11081;45.946;6.140;2023-12-20T03:04:32;20.10;;;11.40;;
21837;SDS011;11081;45.946;6.140;2023-12-20T03:07:01;17.53;;;11.97;;
21837;SDS011;11081;45.946;6.140;2023-12-20T03:09:29;17.57;;;11.27;;
21837;SDS011;11081;45.946;6.140;2023-12-20T03:12:13;18.73;;;11.77;;
21837;SDS011;11081;45.946;6.140;2023-12-20T03:14:41;19.03;;;12.20;;
21837;SDS011;11081;45.946;6.140;2023-12-20T03:17:10;17.43;;;11.20;;
21837;SDS011;11081;45.946;6.140;2023-12-20T03:19:38;18.73;;;11.97;;
21837;SDS011;11081;45.946;6.140;2023-12-20T03:22:06;17.57;;;12.23;;
21837;SDS011;11081;45.946;6.140;2023-12-20T03:24:34;20.77;;;13.57;;
21837;SDS011;11081;45.946;6.140;2023-12-20T03:27:02;19.20;;;12.33;;
21837;SDS011;11081;45.946;6.140;2023-12-20T03:29:32;20.40;;;12.23;;
21837;SDS011;11081;45.946;6.140;2023-12-20T03:31:59;21.93;;;13.90;;
21837;SDS011;11081;45.946;6.140;2023-12-20T03:34:27;20.20;;;13.20;;
21837;SDS011;11081;45.946;6.140;2023-12-20T03:36:56;20.40;;;13.60;;
21837;SDS011;11081;45.946;6.140;2023-12-20T03:39:24;20.70;;;14.17;;
21837;SDS011;11081;45.946;6.140;2023-12-20T03:41:52;22.57;;;13.90;;
21837;SDS011;11081;45.946;6.140;2023-12-20T03:44:19;20.93;;;13.40;;
21837;SDS011;11081;45.946;6.140;2023-12-20T03:46:49;19.60;;;12.87;;
21837;SDS011;11081;45.946;6.140;2023-12-20T03:49:17;18.67;;;13.23;;
21837;SDS011;11081;45.946;6.140;2023-12-20T03:51:45;20.67;;;13.57;;
21837;SDS011;11081;45.946;6.140;2023-12-20T03:54:13;24.27;;;14.40;;
21837;SDS011;11081;45.946;6.140;2023-12-20T03:56:41;19.27;;;13.30;;
21837;SDS011;11081;45.946;6.140;2023-12-20T03:59:09;20.03;;;13.60;;
21837;SDS011;11081;45.946;6.140;2023-12-20T04:01:37;20.87;;;13.60;;
21837;SDS011;11081;45.946;6.140;2023-12-20T04:04:06;24.50;;;13.83;;
21837;SDS011;11081;45.946;6.140;2023-12-20T04:06:35;22.30;;;14.53;;
21837;SDS011;11081;45.946;6.140;2023-12-20T04:09:03;18.73;;;13.37;;
21837;SDS011;11081;45.946;6.140;2023-12-20T04:11:31;24.53;;;12.80;;
21837;SDS011;11081;45.946;6.140;2023-12-20T04:13:58;21.07;;;12.63;;
21837;SDS011;11081;45.946;6.140;2023-12-20T04:16:27;18.43;;;13.10;;
21837;SDS011;11081;45.946;6.140;2023-12-20T04:18:55;18.90;;;13.67;;
21837;SDS011;11081;45.946;6.140;2023-12-20T04:21:24;18.77;;;12.40;;
21837;SDS011;11081;45.946;6.140;2023-12-20T04:23:52;19.53;;;13.07;;
21837;SDS011;11081;45.946;6.140;2023-12-20T04:26:20;22.03;;;13.90;;
21837;SDS011;11081;45.946;6.140;2023-12-20T04:28:48;21.77;;;13.93;;
21837;SDS011;11081;45.946;6.140;2023-12-20T04:31:19;23.33;;;14.80;;
21837;SDS011;11081;45.946;6.140;2023-12-20T04:33:47;24.47;;;14.13;;
21837;SDS011;11081;45.946;6.140;2023-12-20T04:36:15;20.37;;;13.87;;
21837;SDS011;11081;45.946;6.140;2023-12-20T04:38:44;20.17;;;13.20;;
21837;SDS011;11081;45.946;6.140;2023-12-20T04:41:12;19.97;;;13.13;;
21837;SDS011;11081;45.946;6.140;2023-12-20T04:43:42;22.40;;;13.20;;
21837;SDS011;11081;45.946;6.140;2023-12-20T04:46:10;20.43;;;11.43;;
21837;SDS011;11081;45.946;6.140;2023-12-20T04:48:38;17.17;;;11.27;;
21837;SDS011;11081;45.946;6.140;2023-12-20T04:51:06;17.07;;;11.13;;
21837;SDS011;11081;45.946;6.140;2023-12-20T04:53:34;15.73;;;10.93;;
21837;SDS011;11081;45.946;6.140;2023-12-20T04:56:03;17.07;;;11.87;;
21837;SDS011;11081;45.946;6.140;2023-12-20T04:58:31;19.83;;;13.17;;
21837;SDS011;11081;45.946;6.140;2023-12-20T05:01:00;24.77;;;13.67;;
21837;SDS011;11081;45.946;6.140;2023-12-20T05:03:28;25.33;;;17.00;;
21837;SDS011;11081;45.946;6.140;2023-12-20T05:05:56;22.43;;;13.80;;
21837;SDS011;11081;45.946;6.140;2023-12-20T05:08:24;20.07;;;13.90;;
21837;SDS011;11081;45.946;6.140;2023-12-20T05:10:53;20.37;;;13.83;;
21837;SDS011;11081;45.946;6.140;2023-12-20T05:13:23;24.67;;;13.43;;
21837;SDS011;11081;45.946;6.140;2023-12-20T05:16:04;16.90;;;11.20;;
21837;SDS011;11081;45.946;6.140;2023-12-20T05:18:32;19.70;;;11.97;;
21837;SDS011;11081;45.946;6.140;2023-12-20T05:21:00;17.60;;;12.63;;
21837;SDS011;11081;45.946;6.140;2023-12-20T05:23:28;19.87;;;12.37;;
21837;SDS011;11081;45.946;6.140;2023-12-20T05:25:56;16.33;;;11.73;;
21837;SDS011;11081;45.946;6.140;2023-12-20T05:28:26;22.83;;;12.63;;
21837;SDS011;11081;45.946;6.140;2023-12-20T05:30:54;19.50;;;13.07;;
21837;SDS011;11081;45.946;6.140;2023-12-20T05:33:22;18.97;;;13.10;;
21837;SDS011;11081;45.946;6.140;2023-12-20T05:35:51;25.10;;;15.07;;
21837;SDS011;11081;45.946;6.140;2023-12-20T05:38:19;22.77;;;14.10;;
21837;SDS011;11081;45.946;6.140;2023-12-20T05:40:47;22.23;;;15.10;;
21837;SDS011;11081;45.946;6.140;2023-12-20T05:43:15;20.70;;;14.93;;
21837;SDS011;11081;45.946;6.140;2023-12-20T05:45:44;19.43;;;14.03;;
21837;SDS011;11081;45.946;6.140;2023-12-20T05:48:12;23.07;;;15.70;;
21837;SDS011;11081;45.946;6.140;2023-12-20T05:50:40;21.13;;;15.30;;
21837;SDS011;11081;45.946;6.140;2023-12-20T05:53:08;24.80;;;16.60;;
21837;SDS011;11081;45.946;6.140;2023-12-20T05:55:36;22.00;;;16.50;;
21837;SDS011;11081;45.946;6.140;2023-12-20T05:58:04;24.00;;;17.13;;
21837;SDS011;11081;45.946;6.140;2023-12-20T06:00:32;28.03;;;18.67;;
21837;SDS011;11081;45.946;6.140;2023-12-20T06:03:01;23.73;;;17.33;;
21837;SDS011;11081;45.946;6.140;2023-12-20T06:05:31;25.10;;;17.57;;
21837;SDS011;11081;45.946;6.140;2023-12-20T06:07:59;25.87;;;17.90;;
21837;SDS011;11081;45.946;6.140;2023-12-20T06:10:29;26.30;;;17.37;;
21837;SDS011;11081;45.946;6.140;2023-12-20T06:12:57;24.63;;;16.73;;
21837;SDS011;11081;45.946;6.140;2023-12-20T06:15:27;25.37;;;17.60;;
21837;SDS011;11081;45.946;6.140;2023-12-20T06:17:55;21.97;;;16.23;;
21837;SDS011;11081;45.946;6.140;2023-12-20T06:20:24;24.03;;;15.73;;
21837;SDS011;11081;45.946;6.140;2023-12-20T06:22:52;21.87;;;14.90;;
21837;SDS011;11081;45.946;6.140;2023-12-20T06:25:20;21.47;;;15.27;;
21837;SDS011;11081;45.946;6.140;2023-12-20T06:27:48;20.97;;;15.33;;
21837;SDS011;11081;45.946;6.140;2023-12-20T06:30:16;23.93;;;15.50;;
21837;SDS011;11081;45.946;6.140;2023-12-20T06:32:44;22.70;;;15.47;;
21837;SDS011;11081;45.946;6.140;2023-12-20T06:35:13;24.20;;;15.67;;
21837;SDS011;11081;45.946;6.140;2023-12-20T06:37:42;22.53;;;14.87;;
21837;SDS011;11081;45.946;6.140;2023-12-20T06:40:11;20.87;;;14.37;;
21837;SDS011;11081;45.946;6.140;2023-12-20T06:42:43;21.93;;;14.70;;
21837;SDS011;11081;45.946;6.140;2023-12-20T06:45:27;23.30;;;14.40;;
21837;SDS011;11081;45.946;6.140;2023-12-20T06:47:55;25.07;;;15.47;;
21837;SDS011;11081;45.946;6.140;2023-12-20T06:50:23;22.50;;;15.70;;
21837;SDS011;11081;45.946;6.140;2023-12-20T06:52:52;24.03;;;15.83;;
21837;SDS011;11081;45.946;6.140;2023-12-20T06:55:20;21.07;;;14.30;;
21837;SDS011;11081;45.946;6.140;2023-12-20T06:57:48;20.80;;;14.20;;
21837;SDS011;11081;45.946;6.140;2023-12-20T07:00:16;21.33;;;15.13;;
21837;SDS011;11081;45.946;6.140;2023-12-20T07:02:47;23.70;;;15.13;;
21837;SDS011;11081;45.946;6.140;2023-12-20T07:05:16;24.27;;;16.13;;
21837;SDS011;11081;45.946;6.140;2023-12-20T07:07:46;23.17;;;14.70;;
21837;SDS011;11081;45.946;6.140;2023-12-20T07:10:16;27.23;;;15.30;;
21837;SDS011;11081;45.946;6.140;2023-12-20T07:12:44;21.80;;;14.47;;
21837;SDS011;11081;45.946;6.140;2023-12-20T07:15:13;20.83;;;14.30;;
21837;SDS011;11081;45.946;6.140;2023-12-20T07:17:40;24.40;;;15.13;;
21837;SDS011;11081;45.946;6.140;2023-12-20T07:20:09;23.00;;;14.90;;
21837;SDS011;11081;45.946;6.140;2023-12-20T07:22:38;22.47;;;15.30;;
21837;SDS011;11081;45.946;6.140;2023-12-20T07:25:06;24.83;;;16.07;;
21837;SDS011;11081;45.946;6.140;2023-12-20T07:27:36;24.40;;;15.60;;
21837;SDS011;11081;45.946;6.140;2023-12-20T07:30:07;23.90;;;15.80;;
21837;SDS011;11081;45.946;6.140;2023-12-20T07:32:36;24.20;;;16.13;;
21837;SDS011;11081;45.946;6.140;2023-12-20T07:35:04;24.50;;;15.80;;
21837;SDS011;11081;45.946;6.140;2023-12-20T07:37:33;23.93;;;14.83;;
21837;SDS011;11081;45.946;6.140;2023-12-20T07:40:00;21.37;;;14.83;;
21837;SDS011;11081;45.946;6.140;2023-12-20T07:42:30;24.37;;;14.70;;
21837;SDS011;11081;45.946;6.140;2023-12-20T07:44:59;24.57;;;14.63;;
21837;SDS011;11081;45.946;6.140;2023-12-20T07:47:27;22.43;;;14.10;;
21837;SDS011;11081;45.946;6.140;2023-12-20T07:49:55;22.77;;;14.17;;
21837;SDS011;11081;45.946;6.140;2023-12-20T07:52:23;22.43;;;14.17;;
21837;SDS011;11081;45.946;6.140;2023-12-20T07:54:52;17.27;;;12.60;;
21837;SDS011;11081;45.946;6.140;2023-12-20T07:57:20;21.97;;;14.23;;
21837;SDS011;11081;45.946;6.140;2023-12-20T07:59:48;23.93;;;14.00;;
21837;SDS011;11081;45.946;6.140;2023-12-20T08:02:17;24.73;;;14.37;;
21837;SDS011;11081;45.946;6.140;2023-12-20T08:04:45;24.53;;;15.13;;
21837;SDS011;11081;45.946;6.140;2023-12-20T08:07:13;23.43;;;14.97;;
21837;SDS011;11081;45.946;6.140;2023-12-20T08:09:41;24.83;;;15.63;;
21837;SDS011;11081;45.946;6.140;2023-12-20T08:12:10;21.47;;;14.20;;
21837;SDS011;11081;45.946;6.140;2023-12-20T08:14:38;24.93;;;14.37;;
21837;SDS011;11081;45.946;6.140;2023-12-20T08:17:06;25.73;;;14.27;;
21837;SDS011;11081;45.946;6.140;2023-12-20T08:19:35;20.60;;;13.90;;
21837;SDS011;11081;45.946;6.140;2023-12-20T08:22:03;24.03;;;15.57;;
21837;SDS011;11081;45.946;6.140;2023-12-20T08:24:31;25.67;;;15.63;;
21837;SDS011;11081;45.946;6.140;2023-12-20T08:26:59;22.53;;;15.53;;
21837;SDS011;11081;45.946;6.140;2023-12-20T08:29:27;26.07;;;15.23;;
21837;SDS011;11081;45.946;6.140;2023-12-20T08:31:54;25.03;;;15.50;;
21837;SDS011;11081;45.946;6.140;2023-12-20T08:34:23;25.00;;;13.40;;
21837;SDS011;11081;45.946;6.140;2023-12-20T08:36:53;26.47;;;15.17;;
21837;SDS011;11081;45.946;6.140;2023-12-20T08:39:21;22.90;;;15.33;;
21837;SDS011;11081;45.946;6.140;2023-12-20T08:41:49;25.13;;;14.40;;
21837;SDS011;11081;45.946;6.140;2023-12-20T08:44:17;19.37;;;12.90;;
21837;SDS011;11081;45.946;6.140;2023-12-20T08:46:45;20.53;;;12.97;;
21837;SDS011;11081;45.946;6.140;2023-12-20T08:49:13;20.00;;;14.23;;
21837;SDS011;11081;45.946;6.140;2023-12-20T08:51:41;20.30;;;13.67;;
21837;SDS011;11081;45.946;6.140;2023-12-20T08:54:11;21.07;;;14.37;;
21837;SDS011;11081;45.946;6.140;2023-12-20T08:56:39;25.57;;;14.53;;
21837;SDS011;11081;45.946;6.140;2023-12-20T08:59:07;29.23;;;15.83;;
21837;SDS011;11081;45.946;6.140;2023-12-20T09:01:35;25.33;;;14.70;;
21837;SDS011;11081;45.946;6.140;2023-12-20T09:04:03;27.13;;;15.60;;
21837;SDS011;11081;45.946;6.140;2023-12-20T09:06:32;30.70;;;16.73;;
21837;SDS011;11081;45.946;6.140;2023-12-20T09:09:00;29.13;;;17.43;;
21837;SDS011;11081;45.946;6.140;2023-12-20T09:11:30;40.30;;;20.97;;
21837;SDS011;11081;45.946;6.140;2023-12-20T09:13:58;35.80;;;20.10;;
21837;SDS011;11081;45.946;6.140;2023-12-20T09:16:26;36.83;;;21.00;;
21837;SDS011;11081;45.946;6.140;2023-12-20T09:18:55;45.37;;;22.40;;
21837;SDS011;11081;45.946;6.140;2023-12-20T09:21:23;39.93;;;21.50;;
21837;SDS011;11081;45.946;6.140;2023-12-20T09:23:51;36.63;;;21.03;;
21837;SDS011;11081;45.946;6.140;2023-12-20T09:26:19;40.70;;;23.70;;
21837;SDS011;11081;45.946;6.140;2023-12-20T09:28:48;40.00;;;22.13;;
21837;SDS011;11081;45.946;6.140;2023-12-20T09:31:16;43.93;;;22.40;;
21837;SDS011;11081;45.946;6.140;2023-12-20T09:33:44;43.77;;;23.97;;
21837;SDS011;11081;45.946;6.140;2023-12-20T09:36:12;36.47;;;20.50;;
21837;SDS011;11081;45.946;6.140;2023-12-20T09:38:40;37.27;;;20.00;;
21837;SDS011;11081;45.946;6.140;2023-12-20T09:41:12;34.37;;;19.77;;
21837;SDS011;11081;45.946;6.140;2023-12-20T09:43:40;36.90;;;20.53;;
21837;SDS011;11081;45.946;6.140;2023-12-20T09:46:10;33.73;;;20.77;;
21837;SDS011;11081;45.946;6.140;2023-12-20T09:48:42;32.80;;;20.57;;
21837;SDS011;11081;45.946;6.140;2023-12-20T09:51:12;30.73;;;19.90;;
21837;SDS011;11081;45.946;6.140;2023-12-20T09:53:40;31.80;;;20.27;;
21837;SDS011;11081;45.946;6.140;2023-12-20T09:56:10;29.70;;;19.13;;
21837;SDS011;11081;45.946;6.140;2023-12-20T09:58:39;28.40;;;18.80;;
21837;SDS011;11081;45.946;6.140;2023-12-20T10:01:07;30.77;;;19.80;;
21837;SDS011;11081;45.946;6.140;2023-12-20T10:03:37;34.53;;;21.00;;
21837;SDS011;11081;45.946;6.140;2023-12-20T10:06:08;35.20;;;21.37;;
21837;SDS011;11081;45.946;6.140;2023-12-20T10:08:36;34.43;;;20.37;;
21837;SDS011;11081;45.946;6.140;2023-12-20T10:11:04;36.50;;;21.90;;
21837;SDS011;11081;45.946;6.140;2023-12-20T10:13:32;33.60;;;21.40;;
21837;SDS011;11081;45.946;6.140;2023-12-20T10:16:00;36.43;;;22.57;;
21837;SDS011;11081;45.946;6.140;2023-12-20T10:18:29;33.23;;;21.47;;
21837;SDS011;11081;45.946;6.140;2023-12-20T10:21:06;40.47;;;23.47;;
21837;SDS011;11081;45.946;6.140;2023-12-20T10:23:36;34.83;;;22.33;;
21837;SDS011;11081;45.946;6.140;2023-12-20T10:26:05;38.50;;;22.27;;
21837;SDS011;11081;45.946;6.140;2023-12-20T10:28:34;35.23;;;22.33;;
21837;SDS011;11081;45.946;6.140;2023-12-20T10:31:02;38.70;;;23.03;;
21837;SDS011;11081;45.946;6.140;2023-12-20T10:33:30;30.97;;;21.37;;
21837;SDS011;11081;45.946;6.140;2023-12-20T10:35:59;35.07;;;21.77;;
21837;SDS011;11081;45.946;6.140;2023-12-20T10:38:29;35.53;;;23.43;;
21837;SDS011;11081;45.946;6.140;2023-12-20T10:40:57;33.60;;;22.93;;
21837;SDS011;11081;45.946;6.140;2023-12-20T10:43:26;37.27;;;23.30;;
21837;SDS011;11081;45.946;6.140;2023-12-20T10:45:56;38.80;;;22.90;;
21837;SDS011;11081;45.946;6.140;2023-12-20T10:48:25;37.63;;;23.80;;
21837;SDS011;11081;45.946;6.140;2023-12-20T10:50:56;36.00;;;23.13;;
21837;SDS011;11081;45.946;6.140;2023-12-20T10:53:25;39.97;;;22.43;;
21837;SDS011;11081;45.946;6.140;2023-12-20T10:55:55;49.10;;;28.73;;
21837;SDS011;11081;45.946;6.140;2023-12-20T10:58:27;45.20;;;27.20;;
21837;SDS011;11081;45.946;6.140;2023-12-20T11:00:59;40.57;;;24.67;;
21837;SDS011;11081;45.946;6.140;2023-12-20T11:03:30;34.93;;;21.60;;
21837;SDS011;11081;45.946;6.140;2023-12-20T11:06:03;32.97;;;20.50;;
21837;SDS011;11081;45.946;6.140;2023-12-20T11:08:39;27.57;;;19.13;;
21837;SDS011;11081;45.946;6.140;2023-12-20T11:11:18;28.60;;;19.87;;
21837;SDS011;11081;45.946;6.140;2023-12-20T11:13:54;28.00;;;19.10;;
21837;SDS011;11081;45.946;6.140;2023-12-20T11:16:27;28.70;;;20.10;;
21837;SDS011;11081;45.946;6.140;2023-12-20T11:19:09;29.93;;;19.43;;
21837;SDS011;11081;45.946;6.140;2023-12-20T11:21:40;29.47;;;18.60;;
21837;SDS011;11081;45.946;6.140;2023-12-20T11:24:08;26.10;;;17.70;;
21837;SDS011;11081;45.946;6.140;2023-12-20T11:26:38;26.80;;;18.13;;
21837;SDS011;11081;45.946;6.140;2023-12-20T11:29:30;30.17;;;19.47;;
21837;SDS011;11081;45.946;6.140;2023-12-20T11:32:02;32.93;;;20.00;;
21837;SDS011;11081;45.946;6.140;2023-12-20T11:34:31;29.40;;;19.67;;
21837;SDS011;11081;45.946;6.140;2023-12-20T11:37:02;29.57;;;19.50;;
21837;SDS011;11081;45.946;6.140;2023-12-20T11:39:30;37.60;;;19.80;;
21837;SDS011;11081;45.946;6.140;2023-12-20T11:42:05;32.30;;;19.60;;
21837;SDS011;11081;45.946;6.140;2023-12-20T11:44:34;30.77;;;19.83;;
21837;SDS011;11081;45.946;6.140;2023-12-20T11:47:04;31.93;;;19.60;;
21837;SDS011;11081;45.946;6.140;2023-12-20T11:49:32;25.23;;;16.37;;
21837;SDS011;11081;45.946;6.140;2023-12-20T11:52:00;25.52;;;16.27;;
21837;SDS011;11081;45.946;6.140;2023-12-20T11:54:29;27.70;;;17.53;;
21837;SDS011;11081;45.946;6.140;2023-12-20T11:56:57;22.03;;;15.50;;
21837;SDS011;11081;45.946;6.140;2023-12-20T11:59:27;23.03;;;16.07;;
21837;SDS011;11081;45.946;6.140;2023-12-20T12:01:55;23.20;;;15.77;;
21837;SDS011;11081;45.946;6.140;2023-12-20T12:04:28;27.83;;;16.58;;
21837;SDS011;11081;45.946;6.140;2023-12-20T12:06:56;25.57;;;17.50;;
21837;SDS011;11081;45.946;6.140;2023-12-20T12:09:24;23.93;;;16.67;;
21837;SDS011;11081;45.946;6.140;2023-12-20T12:11:52;23.60;;;15.03;;
21837;SDS011;11081;45.946;6.140;2023-12-20T12:14:19;21.03;;;14.57;;
21837;SDS011;11081;45.946;6.140;2023-12-20T12:16:49;23.20;;;15.30;;
21837;SDS011;11081;45.946;6.140;2023-12-20T12:19:20;23.87;;;15.17;;
21837;SDS011;11081;45.946;6.140;2023-12-20T12:21:48;21.00;;;14.60;;
21837;SDS011;11081;45.946;6.140;2023-12-20T12:24:19;22.07;;;13.33;;
21837;SDS011;11081;45.946;6.140;2023-12-20T12:26:51;19.30;;;13.50;;
21837;SDS011;11081;45.946;6.140;2023-12-20T12:29:20;20.30;;;14.40;;
21837;SDS011;11081;45.946;6.140;2023-12-20T12:31:49;23.43;;;15.60;;
21837;SDS011;11081;45.946;6.140;2023-12-20T12:34:17;23.23;;;14.82;;
21837;SDS011;11081;45.946;6.140;2023-12-20T12:36:45;23.63;;;15.23;;
21837;SDS011;11081;45.946;6.140;2023-12-20T12:39:15;20.00;;;14.03;;
21837;SDS011;11081;45.946;6.140;2023-12-20T12:41:43;19.07;;;13.23;;
21837;SDS011;11081;45.946;6.140;2023-12-20T12:44:11;19.57;;;13.33;;
21837;SDS011;11081;45.946;6.140;2023-12-20T12:46:43;22.63;;;14.77;;
21837;SDS011;11081;45.946;6.140;2023-12-20T12:49:13;21.77;;;13.43;;
21837;SDS011;11081;45.946;6.140;2023-12-20T12:51:42;18.17;;;12.00;;
21837;SDS011;11081;45.946;6.140;2023-12-20T12:54:10;18.83;;;12.03;;
21837;SDS011;11081;45.946;6.140;2023-12-20T12:56:39;16.70;;;11.20;;
21837;SDS011;11081;45.946;6.140;2023-12-20T12:59:07;16.87;;;10.97;;
21837;SDS011;11081;45.946;6.140;2023-12-20T13:01:35;16.53;;;11.13;;
21837;SDS011;11081;45.946;6.140;2023-12-20T13:04:05;13.63;;;8.97;;
21837;SDS011;11081;45.946;6.140;2023-12-20T13:06:38;15.30;;;10.27;;
21837;SDS011;11081;45.946;6.140;2023-12-20T13:09:07;17.07;;;10.63;;
21837;SDS011;11081;45.946;6.140;2023-12-20T13:11:36;17.60;;;10.63;;
21837;SDS011;11081;45.946;6.140;2023-12-20T13:14:04;12.17;;;8.00;;
21837;SDS011;11081;45.946;6.140;2023-12-20T13:16:32;14.00;;;7.97;;
21837;SDS011;11081;45.946;6.140;2023-12-20T13:19:01;10.70;;;6.83;;
21837;SDS011;11081;45.946;6.140;2023-12-20T13:21:29;6.10;;;3.60;;
21837;SDS011;11081;45.946;6.140;2023-12-20T13:23:58;3.57;;;2.60;;
21837;SDS011;11081;45.946;6.140;2023-12-20T13:26:26;3.80;;;2.20;;
21837;SDS011;11081;45.946;6.140;2023-12-20T13:28:54;3.07;;;2.10;;
21837;SDS011;11081;45.946;6.140;2023-12-20T13:31:22;3.37;;;2.33;;
21837;SDS011;11081;45.946;6.140;2023-12-20T13:33:52;3.73;;;2.10;;
21837;SDS011;11081;45.946;6.140;2023-12-20T13:36:20;3.27;;;1.67;;
21837;SDS011;11081;45.946;6.140;2023-12-20T13:38:48;3.83;;;1.53;;
21837;SDS011;11081;45.946;6.140;2023-12-20T13:41:18;2.27;;;1.40;;
21837;SDS011;11081;45.946;6.140;2023-12-20T13:43:46;1.57;;;1.30;;
21837;SDS011;11081;45.946;6.140;2023-12-20T13:46:13;2.53;;;1.63;;
21837;SDS011;11081;45.946;6.140;2023-12-20T13:48:41;1.40;;;1.30;;
21837;SDS011;11081;45.946;6.140;2023-12-20T13:51:09;2.03;;;1.63;;
21837;SDS011;11081;45.946;6.140;2023-12-20T13:53:37;2.37;;;1.50;;
21837;SDS011;11081;45.946;6.140;2023-12-20T13:56:06;3.17;;;1.37;;
21837;SDS011;11081;45.946;6.140;2023-12-20T13:58:35;1.53;;;1.30;;
21837;SDS011;11081;45.946;6.140;2023-12-20T14:01:04;1.67;;;1.20;;
21837;SDS011;11081;45.946;6.140;2023-12-20T14:03:32;1.23;;;1.13;;
21837;SDS011;11081;45.946;6.140;2023-12-20T14:06:00;2.70;;;1.20;;
21837;SDS011;11081;45.946;6.140;2023-12-20T14:08:28;2.07;;;1.60;;
21837;SDS011;11081;45.946;6.140;2023-12-20T14:10:56;3.47;;;1.30;;
21837;SDS011;11081;45.946;6.140;2023-12-20T14:13:24;4.53;;;1.80;;
21837;SDS011;11081;45.946;6.140;2023-12-20T14:15:53;3.07;;;1.50;;
21837;SDS011;11081;45.946;6.140;2023-12-20T14:18:21;2.43;;;1.27;;
21837;SDS011;11081;45.946;6.140;2023-12-20T14:20:49;2.00;;;1.40;;
21837;SDS011;11081;45.946;6.140;2023-12-20T14:23:17;3.47;;;1.57;;
21837;SDS011;11081;45.946;6.140;2023-12-20T14:25:45;2.63;;;1.60;;
21837;SDS011;11081;45.946;6.140;2023-12-20T14:28:18;1.97;;;1.57;;
21837;SDS011;11081;45.946;6.140;2023-12-20T14:30:47;1.90;;;1.43;;
21837;SDS011;11081;45.946;6.140;2023-12-20T14:33:17;2.60;;;1.93;;
21837;SDS011;11081;45.946;6.140;2023-12-20T14:35:47;2.90;;;1.60;;